sensor_id;sensor_type;location;lat;lon;timestamp;pressure;altitude;pressure_sealevel;temperature;humidity
80745;BME280;70143;52.396;16.950;2023-05-29T00:00:58;100908.69;;;12.79;58.38
80745;BME280;70143;52.396;16.950;2023-05-29T00:03:23;100913.25;;;12.74;58.67
80745;BME280;70143;52.396;16.950;2023-05-29T00:05:48;100915.09;;;12.72;59.08
80745;BME280;70143;52.396;16.950;2023-05-29T00:08:14;100914.22;;;12.71;59.07
80745;BME280;70143;52.396;16.950;2023-05-29T00:10:39;100906.38;;;12.70;59.17
80745;BME280;70143;52.396;16.950;2023-05-29T00:13:05;100904.88;;;12.63;59.69
80745;BME280;70143;52.396;16.950;2023-05-29T00:15:30;100904.88;;;12.63;59.92
80745;BME280;70143;52.396;16.950;2023-05-29T00:17:56;100903.06;;;12.65;60.12
80745;BME280;70143;52.396;16.950;2023-05-29T00:20:21;100899.69;;;12.61;60.00
80745;BME280;70143;52.396;16.950;2023-05-29T00:22:47;100899.56;;;12.66;59.43
80745;BME280;70143;52.396;16.950;2023-05-29T00:25:12;100901.25;;;12.67;59.82
80745;BME280;70143;52.396;16.950;2023-05-29T00:27:37;100894.38;;;12.63;59.21
80745;BME280;70143;52.396;16.950;2023-05-29T00:30:03;100909.38;;;12.59;59.02
80745;BME280;70143;52.396;16.950;2023-05-29T00:32:29;100901.34;;;12.64;59.25
80745;BME280;70143;52.396;16.950;2023-05-29T00:34:55;100899.56;;;12.66;59.22
80745;BME280;70143;52.396;16.950;2023-05-29T00:37:20;100895.25;;;12.63;58.90
80745;BME280;70143;52.396;16.950;2023-05-29T00:39:45;100902.19;;;12.66;58.83
80745;BME280;70143;52.396;16.950;2023-05-29T00:42:11;100895.19;;;12.65;58.69
80745;BME280;70143;52.396;16.950;2023-05-29T00:44:36;100900.44;;;12.65;58.65
80745;BME280;70143;52.396;16.950;2023-05-29T00:47:02;100899.72;;;12.59;59.29
80745;BME280;70143;52.396;16.950;2023-05-29T00:49:27;100892.78;;;12.58;58.63
80745;BME280;70143;52.396;16.950;2023-05-29T00:51:54;100896.25;;;12.59;57.54
80745;BME280;70143;52.396;16.950;2023-05-29T00:54:26;100896.22;;;12.60;57.97
80745;BME280;70143;52.396;16.950;2023-05-29T00:56:54;100900.59;;;12.60;58.51
80745;BME280;70143;52.396;16.950;2023-05-29T00:59:20;100902.34;;;12.59;58.26
80745;BME280;70143;52.396;16.950;2023-05-29T01:01:45;100896.22;;;12.60;58.86
80745;BME280;70143;52.396;16.950;2023-05-29T01:04:11;100902.25;;;12.63;58.59
80745;BME280;70143;52.396;16.950;2023-05-29T01:06:40;100904.03;;;12.62;58.76
80745;BME280;70143;52.396;16.950;2023-05-29T01:09:05;100891.91;;;12.58;58.58
80745;BME280;70143;52.396;16.950;2023-05-29T01:14:05;100898.47;;;12.46;60.07
80745;BME280;70143;52.396;16.950;2023-05-29T01:16:45;100896.84;;;12.42;60.17
80745;BME280;70143;52.396;16.950;2023-05-29T01:19:53;100905.81;;;12.35;61.71
80745;BME280;70143;52.396;16.950;2023-05-29T01:28:25;100896.63;;;12.21;62.36
80745;BME280;70143;52.396;16.950;2023-05-29T01:30:54;100897.91;;;12.08;63.24
80745;BME280;70143;52.396;16.950;2023-05-29T01:33:20;100906.63;;;12.10;64.22
80745;BME280;70143;52.396;16.950;2023-05-29T01:35:47;100903.03;;;12.13;64.37
80745;BME280;70143;52.396;16.950;2023-05-29T01:38:12;100902.13;;;12.14;64.67
80745;BME280;70143;52.396;16.950;2023-05-29T01:40:38;100897.75;;;12.14;64.56
80745;BME280;70143;52.396;16.950;2023-05-29T01:43:03;100900.38;;;12.14;64.94
80745;BME280;70143;52.396;16.950;2023-05-29T01:45:29;100895.06;;;12.16;64.25
80745;BME280;70143;52.396;16.950;2023-05-29T01:47:56;100894.19;;;12.15;64.44
80745;BME280;70143;52.396;16.950;2023-05-29T01:50:23;100895.19;;;12.11;63.92
80745;BME280;70143;52.396;16.950;2023-05-29T01:52:49;100891.81;;;12.07;64.76
80745;BME280;70143;52.396;16.950;2023-05-29T01:55:15;100892.97;;;11.99;65.07
80745;BME280;70143;52.396;16.950;2023-05-29T01:57:41;100892.81;;;12.03;64.87
80745;BME280;70143;52.396;16.950;2023-05-29T02:00:07;100892.88;;;12.02;64.49
80745;BME280;70143;52.396;16.950;2023-05-29T02:02:35;100893.84;;;11.99;64.62
80745;BME280;70143;52.396;16.950;2023-05-29T02:05:01;100892.25;;;11.94;64.62
80745;BME280;70143;52.396;16.950;2023-05-29T02:07:26;100889.03;;;11.84;65.60
80745;BME280;70143;52.396;16.950;2023-05-29T02:09:51;100894.41;;;11.79;65.28
80745;BME280;70143;52.396;16.950;2023-05-29T02:12:17;100905.22;;;11.68;66.10
80745;BME280;70143;52.396;16.950;2023-05-29T02:14:42;100896.59;;;11.65;65.54
80745;BME280;70143;52.396;16.950;2023-05-29T02:17:08;100898.47;;;11.61;63.22
80745;BME280;70143;52.396;16.950;2023-05-29T02:19:33;100901.19;;;11.57;63.00
80745;BME280;70143;52.396;16.950;2023-05-29T02:21:59;100894.81;;;11.37;62.01
80745;BME280;70143;52.396;16.950;2023-05-29T02:24:24;100902.09;;;11.26;61.76
80745;BME280;70143;52.396;16.950;2023-05-29T02:26:49;100901.56;;;11.14;62.05
80745;BME280;70143;52.396;16.950;2023-05-29T02:29:15;100902.63;;;11.07;62.16
80745;BME280;70143;52.396;16.950;2023-05-29T02:31:40;100904.50;;;11.02;62.31
80745;BME280;70143;52.396;16.950;2023-05-29T02:34:06;100905.16;;;10.77;63.22
80745;BME280;70143;52.396;16.950;2023-05-29T02:36:31;100904.50;;;10.69;65.08
80745;BME280;70143;52.396;16.950;2023-05-29T02:38:57;100909.91;;;10.63;64.63
80745;BME280;70143;52.396;16.950;2023-05-29T02:41:23;100910.91;;;10.57;65.64
80745;BME280;70143;52.396;16.950;2023-05-29T02:43:48;100908.34;;;10.56;65.40
80745;BME280;70143;52.396;16.950;2023-05-29T02:46:14;100915.25;;;10.58;65.37
80745;BME280;70143;52.396;16.950;2023-05-29T02:48:39;100905.66;;;10.59;64.80
80745;BME280;70143;52.396;16.950;2023-05-29T02:51:04;100909.22;;;10.55;65.02
80745;BME280;70143;52.396;16.950;2023-05-29T02:53:31;100910.91;;;10.57;64.24
80745;BME280;70143;52.396;16.950;2023-05-29T02:55:56;100906.34;;;10.65;64.18
80745;BME280;70143;52.396;16.950;2023-05-29T02:58:22;100913.38;;;10.63;63.92
80745;BME280;70143;52.396;16.950;2023-05-29T03:00:47;100910.88;;;10.59;65.17
80745;BME280;70143;52.396;16.950;2023-05-29T03:03:13;100906.56;;;10.56;64.34
80745;BME280;70143;52.396;16.950;2023-05-29T03:05:38;100907.56;;;10.51;64.10
80745;BME280;70143;52.396;16.950;2023-05-29T03:08:04;100898.31;;;10.39;65.30
80745;BME280;70143;52.396;16.950;2023-05-29T03:10:29;100909.47;;;10.45;65.70
80745;BME280;70143;52.396;16.950;2023-05-29T03:12:55;100900.13;;;10.35;65.07
80745;BME280;70143;52.396;16.950;2023-05-29T03:15:20;100904.22;;;10.45;65.01
80745;BME280;70143;52.396;16.950;2023-05-29T03:17:46;100903.53;;;10.39;65.53
80745;BME280;70143;52.396;16.950;2023-05-29T03:20:12;100913.13;;;10.38;64.88
80745;BME280;70143;52.396;16.950;2023-05-29T03:22:37;100903.66;;;10.34;65.75
80745;BME280;70143;52.396;16.950;2023-05-29T03:25:03;100922.84;;;10.32;65.18
80745;BME280;70143;52.396;16.950;2023-05-29T03:27:30;100921.22;;;10.26;66.60
80745;BME280;70143;52.396;16.950;2023-05-29T03:29:55;100925.56;;;10.27;66.12
80745;BME280;70143;52.396;16.950;2023-05-29T03:32:21;100927.34;;;10.25;66.58
80745;BME280;70143;52.396;16.950;2023-05-29T03:34:46;100924.69;;;10.28;66.80
80745;BME280;70143;52.396;16.950;2023-05-29T03:37:11;100917.81;;;10.24;66.68
80745;BME280;70143;52.396;16.950;2023-05-29T03:39:37;100921.03;;;10.35;65.78
80745;BME280;70143;52.396;16.950;2023-05-29T03:42:03;100922.00;;;10.31;66.21
80745;BME280;70143;52.396;16.950;2023-05-29T03:44:28;100923.78;;;10.29;66.83
80745;BME280;70143;52.396;16.950;2023-05-29T03:46:54;100923.69;;;10.34;65.98
80745;BME280;70143;52.396;16.950;2023-05-29T03:49:19;100926.16;;;10.40;66.48
80745;BME280;70143;52.396;16.950;2023-05-29T03:51:45;100921.81;;;10.40;67.22
80745;BME280;70143;52.396;16.950;2023-05-29T03:54:10;100933.81;;;10.47;66.03
80745;BME280;70143;52.396;16.950;2023-05-29T03:56:36;100931.09;;;10.52;66.66
80745;BME280;70143;52.396;16.950;2023-05-29T03:59:03;100927.47;;;10.58;67.00
80745;BME280;70143;52.396;16.950;2023-05-29T04:01:28;100936.69;;;10.73;65.94
80745;BME280;70143;52.396;16.950;2023-05-29T04:03:54;100927.94;;;10.74;66.28
80745;BME280;70143;52.396;16.950;2023-05-29T04:06:19;100940.91;;;10.78;66.16
80745;BME280;70143;52.396;16.950;2023-05-29T04:08:45;100939.03;;;10.83;66.15
80745;BME280;70143;52.396;16.950;2023-05-29T04:11:10;100941.31;;;10.96;65.95
80745;BME280;70143;52.396;16.950;2023-05-29T04:13:36;100935.16;;;10.98;65.11
80745;BME280;70143;52.396;16.950;2023-05-29T04:16:01;100942.88;;;11.03;65.70
80745;BME280;70143;52.396;16.950;2023-05-29T04:18:27;100941.72;;;11.13;65.16
80745;BME280;70143;52.396;16.950;2023-05-29T04:20:52;100944.19;;;11.19;65.43
80745;BME280;70143;52.396;16.950;2023-05-29T04:23:18;100938.00;;;11.22;64.74
80745;BME280;70143;52.396;16.950;2023-05-29T04:25:43;100942.19;;;11.28;65.55
80745;BME280;70143;52.396;16.950;2023-05-29T04:28:09;100945.13;;;11.48;64.79
80745;BME280;70143;52.396;16.950;2023-05-29T04:30:34;100950.13;;;11.56;64.43
80745;BME280;70143;52.396;16.950;2023-05-29T04:32:59;100942.50;;;11.48;64.55
80745;BME280;70143;52.396;16.950;2023-05-29T04:35:25;100952.56;;;11.62;64.61
80745;BME280;70143;52.396;16.950;2023-05-29T04:37:50;100958.59;;;11.66;63.90
80745;BME280;70143;52.396;16.950;2023-05-29T04:40:16;100955.03;;;11.68;64.41
80745;BME280;70143;52.396;16.950;2023-05-29T04:42:41;100956.97;;;11.62;65.43
80745;BME280;70143;52.396;16.950;2023-05-29T04:45:07;100946.31;;;11.68;64.34
80745;BME280;70143;52.396;16.950;2023-05-29T04:47:32;100946.69;;;11.85;63.78
80745;BME280;70143;52.396;16.950;2023-05-29T04:49:59;100947.44;;;11.89;65.02
80745;BME280;70143;52.396;16.950;2023-05-29T04:52:25;100942.97;;;11.93;64.75
80745;BME280;70143;52.396;16.950;2023-05-29T04:54:51;100946.84;;;12.09;63.86
80745;BME280;70143;52.396;16.950;2023-05-29T04:57:16;100946.66;;;12.15;64.40
80745;BME280;70143;52.396;16.950;2023-05-29T04:59:42;100942.94;;;12.22;63.88
80745;BME280;70143;52.396;16.950;2023-05-29T05:02:07;100941.88;;;12.28;63.83
80745;BME280;70143;52.396;16.950;2023-05-29T05:04:32;100938.03;;;12.40;62.93
80745;BME280;70143;52.396;16.950;2023-05-29T05:06:58;100933.47;;;12.45;63.46
80745;BME280;70143;52.396;16.950;2023-05-29T05:09:23;100937.50;;;12.55;63.25
80745;BME280;70143;52.396;16.950;2023-05-29T05:11:49;100941.34;;;12.72;62.65
80745;BME280;70143;52.396;16.950;2023-05-29T05:14:15;100942.72;;;12.82;62.35
80745;BME280;70143;52.396;16.950;2023-05-29T05:16:41;100946.69;;;12.94;62.65
80745;BME280;70143;52.396;16.950;2023-05-29T05:19:06;100941.88;;;13.07;61.82
80745;BME280;70143;52.396;16.950;2023-05-29T05:21:32;100932.84;;;13.14;61.47
80745;BME280;70143;52.396;16.950;2023-05-29T05:23:57;100940.09;;;13.32;60.82
80745;BME280;70143;52.396;16.950;2023-05-29T05:26:23;100940.69;;;13.41;60.48
80745;BME280;70143;52.396;16.950;2023-05-29T05:28:48;100943.03;;;13.48;60.34
80745;BME280;70143;52.396;16.950;2023-05-29T05:31:14;100936.59;;;13.57;60.19
80745;BME280;70143;52.396;16.950;2023-05-29T05:33:39;100944.81;;;13.72;60.04
80745;BME280;70143;52.396;16.950;2023-05-29T05:36:05;100940.78;;;13.85;59.47
80745;BME280;70143;52.396;16.950;2023-05-29T05:38:30;100935.97;;;13.96;59.14
80745;BME280;70143;52.396;16.950;2023-05-29T05:40:56;100943.91;;;14.17;58.91
80745;BME280;70143;52.396;16.950;2023-05-29T05:43:21;100946.88;;;14.31;58.08
80745;BME280;70143;52.396;16.950;2023-05-29T05:45:47;100944.34;;;14.28;58.99
80745;BME280;70143;52.396;16.950;2023-05-29T05:48:12;100947.34;;;14.41;58.17
80745;BME280;70143;52.396;16.950;2023-05-29T05:50:38;100943.72;;;14.44;57.79
80745;BME280;70143;52.396;16.950;2023-05-29T05:53:03;100945.72;;;14.59;57.93
80745;BME280;70143;52.396;16.950;2023-05-29T05:55:29;100943.75;;;14.66;57.68
80745;BME280;70143;52.396;16.950;2023-05-29T05:57:54;100952.78;;;14.81;56.54
80745;BME280;70143;52.396;16.950;2023-05-29T06:00:20;100956.00;;;14.87;56.95
80745;BME280;70143;52.396;16.950;2023-05-29T06:02:45;100954.47;;;15.02;57.93
80745;BME280;70143;52.396;16.950;2023-05-29T06:05:11;100963.56;;;15.16;56.82
80745;BME280;70143;52.396;16.950;2023-05-29T06:07:37;100965.66;;;15.28;55.87
80745;BME280;70143;52.396;16.950;2023-05-29T06:10:03;100964.34;;;15.38;55.96
80745;BME280;70143;52.396;16.950;2023-05-29T06:12:29;100968.91;;;15.54;55.61
80745;BME280;70143;52.396;16.950;2023-05-29T06:14:54;100971.81;;;15.67;55.38
80745;BME280;70143;52.396;16.950;2023-05-29T06:17:20;100963.78;;;15.70;55.50
80745;BME280;70143;52.396;16.950;2023-05-29T06:19:45;100965.31;;;15.94;55.13
80745;BME280;70143;52.396;16.950;2023-05-29T06:22:11;100964.53;;;16.11;53.98
80745;BME280;70143;52.396;16.950;2023-05-29T06:24:36;100969.66;;;16.14;53.66
80745;BME280;70143;52.396;16.950;2023-05-29T06:27:02;100966.03;;;16.17;53.27
80745;BME280;70143;52.396;16.950;2023-05-29T06:29:27;100966.56;;;16.24;53.54
80745;BME280;70143;52.396;16.950;2023-05-29T06:31:53;100967.13;;;16.30;53.65
80745;BME280;70143;52.396;16.950;2023-05-29T06:34:19;100979.03;;;16.39;52.72
80745;BME280;70143;52.396;16.950;2023-05-29T06:36:44;100977.66;;;16.49;53.10
80745;BME280;70143;52.396;16.950;2023-05-29T06:39:10;100978.09;;;16.58;52.69
80745;BME280;70143;52.396;16.950;2023-05-29T06:41:35;100983.50;;;16.74;53.04
80745;BME280;70143;52.396;16.950;2023-05-29T06:44:01;100980.63;;;16.78;51.29
80745;BME280;70143;52.396;16.950;2023-05-29T06:46:26;100975.34;;;16.78;51.11
80745;BME280;70143;52.396;16.950;2023-05-29T06:48:52;100984.91;;;16.81;51.84
80745;BME280;70143;52.396;16.950;2023-05-29T06:51:17;100991.31;;;16.94;50.73
80745;BME280;70143;52.396;16.950;2023-05-29T06:53:43;100982.03;;;16.85;50.95
80745;BME280;70143;52.396;16.950;2023-05-29T06:56:08;100986.72;;;16.98;50.79
80745;BME280;70143;52.396;16.950;2023-05-29T06:58:34;100977.53;;;16.88;50.08
80745;BME280;70143;52.396;16.950;2023-05-29T07:00:59;100990.13;;;17.00;49.61
80745;BME280;70143;52.396;16.950;2023-05-29T07:03:25;100989.81;;;17.06;49.54
80745;BME280;70143;52.396;16.950;2023-05-29T07:05:51;100991.03;;;17.16;49.37
80745;BME280;70143;52.396;16.950;2023-05-29T07:08:17;100993.44;;;17.21;47.76
80745;BME280;70143;52.396;16.950;2023-05-29T07:10:43;100976.41;;;17.27;48.16
80745;BME280;70143;52.396;16.950;2023-05-29T07:13:09;100983.59;;;17.25;47.91
80745;BME280;70143;52.396;16.950;2023-05-29T07:15:34;100986.03;;;17.45;48.19
80745;BME280;70143;52.396;16.950;2023-05-29T07:18:00;100985.81;;;17.66;47.52
80745;BME280;70143;52.396;16.950;2023-05-29T07:20:26;100982.56;;;17.61;46.85
80745;BME280;70143;52.396;16.950;2023-05-29T07:22:51;100978.38;;;17.56;47.70
80745;BME280;70143;52.396;16.950;2023-05-29T07:25:17;100985.31;;;17.75;48.45
80745;BME280;70143;52.396;16.950;2023-05-29T07:27:42;100990.88;;;17.86;47.90
80745;BME280;70143;52.396;16.950;2023-05-29T07:30:08;100983.25;;;17.98;47.44
80745;BME280;70143;52.396;16.950;2023-05-29T07:32:34;100986.97;;;17.94;47.46
80745;BME280;70143;52.396;16.950;2023-05-29T07:34:59;100986.63;;;18.00;47.18
80745;BME280;70143;52.396;16.950;2023-05-29T07:37:25;100984.53;;;18.06;46.51
80745;BME280;70143;52.396;16.950;2023-05-29T07:39:50;100980.75;;;17.95;46.44
80745;BME280;70143;52.396;16.950;2023-05-29T07:42:15;100986.47;;;18.03;46.00
80745;BME280;70143;52.396;16.950;2023-05-29T07:44:41;100992.44;;;18.22;46.18
80745;BME280;70143;52.396;16.950;2023-05-29T07:47:07;100999.69;;;18.35;45.78
80745;BME280;70143;52.396;16.950;2023-05-29T07:49:33;100991.00;;;18.49;46.65
80745;BME280;70143;52.396;16.950;2023-05-29T07:51:58;100990.81;;;18.52;45.49
80745;BME280;70143;52.396;16.950;2023-05-29T07:54:24;101000.78;;;18.62;45.43
80745;BME280;70143;52.396;16.950;2023-05-29T07:56:49;101004.75;;;18.70;44.58
80745;BME280;70143;52.396;16.950;2023-05-29T07:59:15;100995.78;;;18.72;45.27
80745;BME280;70143;52.396;16.950;2023-05-29T08:01:40;101003.75;;;18.88;45.04
80745;BME280;70143;52.396;16.950;2023-05-29T08:04:06;101004.13;;;18.96;43.77
80745;BME280;70143;52.396;16.950;2023-05-29T08:06:31;101001.19;;;19.01;43.93
80745;BME280;70143;52.396;16.950;2023-05-29T08:08:57;101008.03;;;19.05;44.42
80745;BME280;70143;52.396;16.950;2023-05-29T08:11:22;101011.75;;;19.17;42.64
80745;BME280;70143;52.396;16.950;2023-05-29T08:13:47;101004.56;;;19.19;43.72
80745;BME280;70143;52.396;16.950;2023-05-29T08:16:13;101007.63;;;19.27;42.51
80745;BME280;70143;52.396;16.950;2023-05-29T08:18:39;101007.63;;;19.27;42.04
80745;BME280;70143;52.396;16.950;2023-05-29T08:21:05;101005.16;;;19.39;41.65
80745;BME280;70143;52.396;16.950;2023-05-29T08:23:30;101005.91;;;19.55;42.06
80745;BME280;70143;52.396;16.950;2023-05-29T08:25:56;101004.00;;;19.57;40.72
80745;BME280;70143;52.396;16.950;2023-05-29T08:28:21;101003.72;;;19.62;40.72
80745;BME280;70143;52.396;16.950;2023-05-29T08:30:47;101014.44;;;19.75;40.69
80745;BME280;70143;52.396;16.950;2023-05-29T08:33:12;101010.78;;;19.77;41.08
80745;BME280;70143;52.396;16.950;2023-05-29T08:35:38;101009.03;;;19.91;41.35
80745;BME280;70143;52.396;16.950;2023-05-29T08:38:03;101011.69;;;20.05;40.24
80745;BME280;70143;52.396;16.950;2023-05-29T08:40:29;101011.84;;;20.16;40.64
80745;BME280;70143;52.396;16.950;2023-05-29T08:43:00;101008.84;;;20.35;39.82
80745;BME280;70143;52.396;16.950;2023-05-29T08:45:28;101014.81;;;20.39;38.66
80745;BME280;70143;52.396;16.950;2023-05-29T08:47:55;101007.72;;;20.39;39.13
80745;BME280;70143;52.396;16.950;2023-05-29T08:50:23;101001.59;;;20.52;39.84
80745;BME280;70143;52.396;16.950;2023-05-29T08:52:49;101008.84;;;20.63;39.35
80745;BME280;70143;52.396;16.950;2023-05-29T08:55:15;101007.91;;;20.64;38.20
80745;BME280;70143;52.396;16.950;2023-05-29T08:57:41;101004.09;;;20.68;38.22
80745;BME280;70143;52.396;16.950;2023-05-29T09:00:08;100990.91;;;20.66;38.78
80745;BME280;70143;52.396;16.950;2023-05-29T09:02:33;101001.28;;;20.84;38.98
80745;BME280;70143;52.396;16.950;2023-05-29T09:04:59;100994.19;;;20.97;37.52
80745;BME280;70143;52.396;16.950;2023-05-29T09:07:24;101003.94;;;20.84;37.57
80745;BME280;70143;52.396;16.950;2023-05-29T09:09:50;101014.47;;;20.85;37.30
80745;BME280;70143;52.396;16.950;2023-05-29T09:12:16;101001.06;;;20.87;37.62
80745;BME280;70143;52.396;16.950;2023-05-29T09:14:42;100992.25;;;20.99;37.54
80745;BME280;70143;52.396;16.950;2023-05-29T09:17:09;101001.31;;;21.09;36.92
80745;BME280;70143;52.396;16.950;2023-05-29T09:19:35;100998.34;;;21.14;36.73
80745;BME280;70143;52.396;16.950;2023-05-29T09:22:06;100992.19;;;21.14;36.08
80745;BME280;70143;52.396;16.950;2023-05-29T09:24:33;101002.56;;;20.91;35.81
80745;BME280;70143;52.396;16.950;2023-05-29T09:27:00;100998.22;;;21.03;36.76
80745;BME280;70143;52.396;16.950;2023-05-29T09:29:46;100994.31;;;21.21;37.12
80745;BME280;70143;52.396;16.950;2023-05-29T09:32:16;101001.88;;;21.27;35.94
80745;BME280;70143;52.396;16.950;2023-05-29T09:34:43;101008.34;;;21.23;36.28
80745;BME280;70143;52.396;16.950;2023-05-29T09:37:09;101000.78;;;21.30;36.39
80745;BME280;70143;52.396;16.950;2023-05-29T09:42:07;101009.22;;;21.50;36.84
80745;BME280;70143;52.396;16.950;2023-05-29T09:44:32;101007.72;;;21.71;35.71
80745;BME280;70143;52.396;16.950;2023-05-29T09:46:59;101007.34;;;22.02;35.18
80745;BME280;70143;52.396;16.950;2023-05-29T09:49:25;101001.16;;;22.25;34.82
80745;BME280;70143;52.396;16.950;2023-05-29T09:51:53;101007.59;;;22.23;34.72
80745;BME280;70143;52.396;16.950;2023-05-29T09:54:19;101004.59;;;22.27;34.99
80745;BME280;70143;52.396;16.950;2023-05-29T09:56:45;101001.81;;;22.29;34.77
80745;BME280;70143;52.396;16.950;2023-05-29T09:59:12;101010.25;;;22.23;34.47
80745;BME280;70143;52.396;16.950;2023-05-29T10:01:42;101000.47;;;22.10;34.97
80745;BME280;70143;52.396;16.950;2023-05-29T10:04:08;101002.50;;;22.20;34.16
80745;BME280;70143;52.396;16.950;2023-05-29T10:06:36;101012.38;;;22.18;34.65
80745;BME280;70143;52.396;16.950;2023-05-29T10:09:02;101001.94;;;22.27;34.09
80745;BME280;70143;52.396;16.950;2023-05-29T10:11:28;100999.25;;;22.27;34.39
80745;BME280;70143;52.396;16.950;2023-05-29T10:13:57;100999.72;;;22.21;34.64
80745;BME280;70143;52.396;16.950;2023-05-29T10:16:23;100988.03;;;21.98;34.90
80745;BME280;70143;52.396;16.950;2023-05-29T10:18:56;100998.84;;;22.21;34.65
80745;BME280;70143;52.396;16.950;2023-05-29T10:21:25;100990.09;;;22.56;33.79
80745;BME280;70143;52.396;16.950;2023-05-29T10:23:52;101000.13;;;22.52;32.95
80745;BME280;70143;52.396;16.950;2023-05-29T10:26:21;101000.75;;;22.56;32.13
80745;BME280;70143;52.396;16.950;2023-05-29T10:37:40;100995.78;;;22.86;32.45
80745;BME280;70143;52.396;16.950;2023-05-29T10:40:09;100993.25;;;22.96;32.33
80745;BME280;70143;52.396;16.950;2023-05-29T10:45:07;100984.47;;;23.18;32.14
80745;BME280;70143;52.396;16.950;2023-05-29T10:47:32;101002.13;;;22.97;32.33
80745;BME280;70143;52.396;16.950;2023-05-29T10:50:01;100988.97;;;22.82;32.82
80745;BME280;70143;52.396;16.950;2023-05-29T10:52:34;100985.72;;;22.90;32.07
80745;BME280;70143;52.396;16.950;2023-05-29T10:54:59;100994.84;;;22.99;32.18
80745;BME280;70143;52.396;16.950;2023-05-29T10:57:25;100988.88;;;23.31;31.88
80745;BME280;70143;52.396;16.950;2023-05-29T11:00:02;100985.88;;;23.00;33.02
80745;BME280;70143;52.396;16.950;2023-05-29T11:02:28;100998.50;;;22.74;32.18
80745;BME280;70143;52.396;16.950;2023-05-29T11:05:20;100985.28;;;22.61;32.03
80745;BME280;70143;52.396;16.950;2023-05-29T11:07:57;100973.81;;;22.47;31.74
80745;BME280;70143;52.396;16.950;2023-05-29T11:10:42;100981.56;;;22.39;33.23
80745;BME280;70143;52.396;16.950;2023-05-29T11:13:07;100978.03;;;22.39;33.52
80745;BME280;70143;52.396;16.950;2023-05-29T11:15:33;100970.78;;;22.41;33.95
80745;BME280;70143;52.396;16.950;2023-05-29T11:18:11;100982.97;;;22.67;32.72
80745;BME280;70143;52.396;16.950;2023-05-29T11:20:43;100971.19;;;22.94;32.34
80745;BME280;70143;52.396;16.950;2023-05-29T11:23:18;100971.66;;;23.35;31.63
80745;BME280;70143;52.396;16.950;2023-05-29T11:25:44;100989.28;;;23.02;30.17
80745;BME280;70143;52.396;16.950;2023-05-29T11:28:11;100977.06;;;22.75;30.30
80745;BME280;70143;52.396;16.950;2023-05-29T11:30:47;100976.56;;;22.70;29.90
80745;BME280;70143;52.396;16.950;2023-05-29T11:33:27;100980.53;;;22.64;30.08
80745;BME280;70143;52.396;16.950;2023-05-29T11:35:59;100974.31;;;22.53;29.79
80745;BME280;70143;52.396;16.950;2023-05-29T11:38:26;100978.69;;;22.54;30.13
80745;BME280;70143;52.396;16.950;2023-05-29T11:40:55;100975.63;;;22.71;30.35
80745;BME280;70143;52.396;16.950;2023-05-29T11:43:22;100958.03;;;22.80;29.08
80745;BME280;70143;52.396;16.950;2023-05-29T11:45:47;100966.72;;;23.06;28.97
80745;BME280;70143;52.396;16.950;2023-05-29T11:48:13;100968.75;;;23.02;28.95
80745;BME280;70143;52.396;16.950;2023-05-29T11:50:39;100967.09;;;23.01;29.23
80745;BME280;70143;52.396;16.950;2023-05-29T11:53:06;100997.09;;;23.28;27.61
80745;BME280;70143;52.396;16.950;2023-05-29T11:55:32;101006.34;;;23.35;26.95
80745;BME280;70143;52.396;16.950;2023-05-29T11:57:59;100989.59;;;23.21;27.26
80745;BME280;70143;52.396;16.950;2023-05-29T12:00:27;100986.91;;;23.33;27.29
80745;BME280;70143;52.396;16.950;2023-05-29T12:02:57;100976.97;;;23.24;27.56
80745;BME280;70143;52.396;16.950;2023-05-29T12:05:23;100972.59;;;23.56;27.21
80745;BME280;70143;52.396;16.950;2023-05-29T12:07:53;100963.00;;;23.99;27.35
80745;BME280;70143;52.396;16.950;2023-05-29T12:10:20;100954.06;;;24.21;26.88
80745;BME280;70143;52.396;16.950;2023-05-29T12:12:50;100956.94;;;24.30;26.69
80745;BME280;70143;52.396;16.950;2023-05-29T12:15:15;100964.19;;;24.39;26.66
80745;BME280;70143;52.396;16.950;2023-05-29T12:17:41;100968.16;;;24.56;25.52
80745;BME280;70143;52.396;16.950;2023-05-29T12:20:07;100956.63;;;24.76;25.44
80745;BME280;70143;52.396;16.950;2023-05-29T12:22:37;100955.00;;;24.85;25.02
80745;BME280;70143;52.396;16.950;2023-05-29T12:25:14;100947.91;;;24.95;24.60
80745;BME280;70143;52.396;16.950;2023-05-29T12:27:44;100943.63;;;25.14;24.96
80745;BME280;70143;52.396;16.950;2023-05-29T12:30:11;100934.63;;;25.15;24.38
80745;BME280;70143;52.396;16.950;2023-05-29T12:32:38;100947.66;;;25.29;23.99
80745;BME280;70143;52.396;16.950;2023-05-29T12:35:11;100940.38;;;25.31;24.50
80745;BME280;70143;52.396;16.950;2023-05-29T12:37:45;100936.34;;;25.57;24.16
80745;BME280;70143;52.396;16.950;2023-05-29T12:40:14;100934.28;;;25.60;24.02
80745;BME280;70143;52.396;16.950;2023-05-29T12:42:40;100938.28;;;25.14;23.96
80745;BME280;70143;52.396;16.950;2023-05-29T12:45:07;100946.09;;;25.58;23.84
80745;BME280;70143;52.396;16.950;2023-05-29T12:47:33;100933.38;;;26.00;23.10
80745;BME280;70143;52.396;16.950;2023-05-29T12:49:59;100933.72;;;25.66;24.25
80745;BME280;70143;52.396;16.950;2023-05-29T12:52:24;100942.78;;;25.35;23.91
80745;BME280;70143;52.396;16.950;2023-05-29T12:54:50;100935.50;;;25.25;23.80
80745;BME280;70143;52.396;16.950;2023-05-29T12:57:16;100934.91;;;25.12;23.93
80745;BME280;70143;52.396;16.950;2023-05-29T12:59:41;100923.66;;;25.18;23.65